createdAt,value
2023-06-04T00:00:10.219Z,1.50
2023-06-04T00:02:36.754Z,1.63
2023-06-04T00:05:03.276Z,2.83
2023-06-04T00:07:29.869Z,1.60
2023-06-04T00:09:57.375Z,2.22
2023-06-04T00:12:23.874Z,1.58
2023-06-04T00:14:50.385Z,1.50
2023-06-04T00:17:16.903Z,1.70
2023-06-04T00:19:43.449Z,1.60
2023-06-04T00:22:10.010Z,1.73
2023-06-04T00:24:38.521Z,1.80
2023-06-04T00:27:05.318Z,1.70
2023-06-04T00:29:31.908Z,1.52
2023-06-04T00:31:58.493Z,2.00
2023-06-04T00:34:25.107Z,2.45
2023-06-04T00:36:51.558Z,1.42
2023-06-04T00:39:18.027Z,1.90
2023-06-04T00:41:44.540Z,2.35
2023-06-04T00:44:12.647Z,1.98
2023-06-04T00:46:42.215Z,1.75
2023-06-04T00:49:08.732Z,1.67
2023-06-04T00:51:35.197Z,1.95
2023-06-04T00:54:03.581Z,1.75
2023-06-04T00:56:30.036Z,1.70
2023-06-04T00:58:56.786Z,1.73
2023-06-04T01:01:38.629Z,1.77
2023-06-04T01:04:05.940Z,1.63
2023-06-04T01:06:37.475Z,2.40
2023-06-04T01:09:04.655Z,1.90
2023-06-04T01:11:31.933Z,1.80
2023-06-04T01:13:58.446Z,1.90
2023-06-04T01:16:26.356Z,1.90
2023-06-04T01:18:53.337Z,1.50
2023-06-04T01:21:19.802Z,1.60
2023-06-04T01:23:46.598Z,1.92
2023-06-04T01:26:13.321Z,1.73
2023-06-04T01:28:40.209Z,2.05
2023-06-04T01:31:10.456Z,2.00
2023-06-04T01:33:37.207Z,1.92
2023-06-04T01:36:03.845Z,1.83
2023-06-04T01:38:30.427Z,1.92
2023-06-04T01:41:02.118Z,1.63
2023-06-04T01:43:29.486Z,1.55
2023-06-04T01:45:57.701Z,1.60
2023-06-04T01:48:24.231Z,2.05
2023-06-04T01:50:50.733Z,1.83
2023-06-04T01:53:17.213Z,1.55
2023-06-04T01:55:44.303Z,1.90
2023-06-04T01:58:10.790Z,1.80
2023-06-04T02:00:37.233Z,1.70
2023-06-04T02:03:03.893Z,1.70
2023-06-04T02:05:30.635Z,1.85
2023-06-04T02:07:58.331Z,1.80
2023-06-04T02:10:25.002Z,2.00
2023-06-04T02:12:55.989Z,1.80
2023-06-04T02:17:51.468Z,1.70
2023-06-04T02:20:18.517Z,1.70
2023-06-04T02:22:45.006Z,2.60
2023-06-04T02:25:11.804Z,1.58
2023-06-04T02:27:38.358Z,1.65
2023-06-04T02:30:05.186Z,2.15
2023-06-04T02:32:31.631Z,1.70
2023-06-04T02:34:58.201Z,1.80
2023-06-04T02:37:24.650Z,1.80
2023-06-04T02:39:54.116Z,2.10
2023-06-04T02:42:20.688Z,1.77
2023-06-04T02:44:47.115Z,2.75
2023-06-04T02:47:13.655Z,2.00
2023-06-04T02:49:40.169Z,1.90
2023-06-04T02:52:06.836Z,1.92
2023-06-04T02:54:33.347Z,1.90
2023-06-04T02:56:59.791Z,1.70
2023-06-04T02:59:27.134Z,1.88
2023-06-04T03:01:53.653Z,1.80
2023-06-04T03:04:21.766Z,2.05
2023-06-04T03:06:48.315Z,2.20
2023-06-04T03:09:14.836Z,1.95
2023-06-04T03:11:41.388Z,1.83
2023-06-04T03:14:07.857Z,2.58
2023-06-04T03:16:34.444Z,2.17
2023-06-04T03:19:01.091Z,2.15
2023-06-04T03:21:30.053Z,1.75
2023-06-04T03:23:57.016Z,2.08
2023-06-04T03:26:23.556Z,1.90
2023-06-04T03:28:50.068Z,2.08
2023-06-04T03:31:16.645Z,2.15
2023-06-04T03:33:43.184Z,2.05
2023-06-04T03:36:09.740Z,2.13
2023-06-04T03:38:39.042Z,1.88
2023-06-04T03:41:05.852Z,2.03
2023-06-04T03:43:33.582Z,2.15
2023-06-04T03:46:00.055Z,2.20
2023-06-04T03:48:26.535Z,2.17
2023-06-04T03:50:53.030Z,2.55
2023-06-04T03:53:19.574Z,2.03
2023-06-04T03:55:48.217Z,2.78
2023-06-04T03:58:15.909Z,1.90
2023-06-04T04:00:42.407Z,2.10
2023-06-04T04:03:10.859Z,2.28
2023-06-04T04:05:38.027Z,2.63
2023-06-04T04:08:05.196Z,2.33
2023-06-04T04:10:31.943Z,2.42
2023-06-04T04:13:01.180Z,2.17
2023-06-04T04:15:28.248Z,2.63
2023-06-04T04:17:55.968Z,1.65
2023-06-04T04:20:22.592Z,2.17
2023-06-04T04:22:51.393Z,1.90
2023-06-04T04:25:18.183Z,2.30
2023-06-04T04:27:45.258Z,2.05
2023-06-04T04:30:15.502Z,2.30
2023-06-04T04:32:49.860Z,2.53
2023-06-04T04:35:19.144Z,2.30
2023-06-04T04:37:46.116Z,2.17
2023-06-04T04:40:15.185Z,2.20
2023-06-04T04:42:42.861Z,1.90
2023-06-04T04:45:09.703Z,2.13
2023-06-04T04:47:36.187Z,2.20
2023-06-04T04:50:02.692Z,2.25
2023-06-04T04:52:29.151Z,1.80
2023-06-04T04:54:56.988Z,2.85
2023-06-04T04:57:25.875Z,2.70
2023-06-04T04:59:52.393Z,2.28
2023-06-04T05:02:18.909Z,1.88
2023-06-04T05:04:45.452Z,2.25
2023-06-04T05:07:12.003Z,3.33
2023-06-04T05:09:38.509Z,2.22
2023-06-04T05:12:05.048Z,2.90
2023-06-04T05:14:32.631Z,2.10
2023-06-04T05:16:59.216Z,3.22
2023-06-04T05:19:25.932Z,2.10
2023-06-04T05:21:52.445Z,2.28
2023-06-04T05:24:18.937Z,3.00
2023-06-04T05:26:45.380Z,2.20
2023-06-04T05:29:11.849Z,2.17
2023-06-04T05:31:41.030Z,2.22
2023-06-04T05:34:07.782Z,2.05
2023-06-04T05:36:34.293Z,1.80
2023-06-04T05:39:01.150Z,2.25
2023-06-04T05:41:28.605Z,2.35
2023-06-04T05:43:55.446Z,2.33
2023-06-04T05:46:22.919Z,2.53
2023-06-04T05:48:49.776Z,2.53
2023-06-04T05:51:16.594Z,2.20
2023-06-04T05:53:43.323Z,2.25
2023-06-04T05:56:12.976Z,1.85
2023-06-04T05:58:39.511Z,2.20
2023-06-04T06:01:06.198Z,2.35
2023-06-04T06:03:32.861Z,2.88
2023-06-04T06:06:00.922Z,2.30
2023-06-04T06:08:27.622Z,2.90
2023-06-04T06:10:54.375Z,2.20
2023-06-04T06:13:22.072Z,2.53
2023-06-04T06:15:53.999Z,2.53
2023-06-04T06:18:20.591Z,2.85
2023-06-04T06:20:47.056Z,2.03
2023-06-04T06:23:13.756Z,2.00
2023-06-04T06:25:41.564Z,2.38
2023-06-04T06:28:08.433Z,2.10
2023-06-04T06:30:34.880Z,2.33
2023-06-04T06:33:01.732Z,2.33
2023-06-04T06:35:28.415Z,2.13
2023-06-04T06:37:54.891Z,2.05
2023-06-04T06:40:21.440Z,2.00
2023-06-04T06:42:52.122Z,1.65
2023-06-04T06:45:19.939Z,1.33
2023-06-04T06:47:46.567Z,3.35
2023-06-04T06:50:13.089Z,2.17
2023-06-04T06:52:39.811Z,1.90
2023-06-04T06:55:07.029Z,1.90
2023-06-04T06:57:34.654Z,1.85
2023-06-04T07:00:01.427Z,2.45
2023-06-04T07:02:28.175Z,2.30
2023-06-04T07:04:57.124Z,2.35
2023-06-04T07:07:23.789Z,1.95
2023-06-04T07:09:50.298Z,1.48
2023-06-04T07:12:16.771Z,1.85
2023-06-04T07:14:43.501Z,2.65
2023-06-04T07:17:09.938Z,1.70
2023-06-04T07:19:36.686Z,1.88
2023-06-04T07:22:03.255Z,1.77
2023-06-04T07:24:29.787Z,1.38
2023-06-04T07:26:56.303Z,1.55
2023-06-04T07:29:22.830Z,1.40
2023-06-04T07:31:49.394Z,1.40
2023-06-04T07:34:16.056Z,1.88
2023-06-04T07:36:42.546Z,2.00
2023-06-04T07:39:09.121Z,1.73
2023-06-04T07:41:35.637Z,2.33
2023-06-04T07:44:02.122Z,1.85
2023-06-04T07:46:31.395Z,1.58
2023-06-04T07:48:58.011Z,1.48
2023-06-04T07:51:24.856Z,1.42
2023-06-04T07:53:51.889Z,1.52
2023-06-04T07:56:18.367Z,1.42
2023-06-04T07:58:45.107Z,1.77
2023-06-04T08:01:11.597Z,1.60
2023-06-04T08:03:38.507Z,1.90
2023-06-04T08:06:05.171Z,1.60
2023-06-04T08:08:32.163Z,2.17
2023-06-04T08:10:58.815Z,1.77
2023-06-04T08:13:25.311Z,1.85
2023-06-04T08:15:51.812Z,2.15
2023-06-04T08:18:18.421Z,1.55
2023-06-04T08:20:44.920Z,2.10
2023-06-04T08:23:11.498Z,1.30
2023-06-04T08:25:38.051Z,2.05
2023-06-04T08:28:04.911Z,1.48
2023-06-04T08:30:31.500Z,1.77
2023-06-04T08:32:58.057Z,1.92
2023-06-04T08:35:24.625Z,1.60
2023-06-04T08:37:51.176Z,1.80
2023-06-04T08:40:17.729Z,1.63
2023-06-04T08:42:46.082Z,2.00
2023-06-04T08:45:22.175Z,1.63
2023-06-04T08:47:52.213Z,1.60
2023-06-04T08:50:19.835Z,1.42
2023-06-04T08:52:47.007Z,1.85
2023-06-04T08:55:17.403Z,1.33
2023-06-04T08:57:43.946Z,1.35
2023-06-04T09:00:10.817Z,1.70
2023-06-04T09:02:38.815Z,1.77
2023-06-04T09:05:06.032Z,1.20
2023-06-04T09:07:32.960Z,1.90
2023-06-04T09:10:11.985Z,2.38
2023-06-04T09:12:43.230Z,1.40
2023-06-04T09:15:11.582Z,1.70
2023-06-04T09:17:38.227Z,1.33
2023-06-04T09:20:06.453Z,1.73
2023-06-04T09:22:37.279Z,1.80
2023-06-04T09:25:10.173Z,1.98
2023-06-04T09:27:43.563Z,1.50
2023-06-04T09:30:10.629Z,1.27
2023-06-04T09:32:37.434Z,1.65
2023-06-04T09:35:13.701Z,1.45
2023-06-04T09:37:40.709Z,1.60
2023-06-04T09:40:08.018Z,1.27
2023-06-04T09:42:44.683Z,1.52
2023-06-04T09:45:11.286Z,1.50
2023-06-04T09:47:43.816Z,1.60
2023-06-04T09:50:13.387Z,1.63
2023-06-04T09:52:41.128Z,1.40
2023-06-04T09:55:20.726Z,1.65
2023-06-04T09:57:48.901Z,1.67
2023-06-04T10:00:17.238Z,1.38
2023-06-04T10:02:45.086Z,1.30
2023-06-04T10:05:14.781Z,1.63
2023-06-04T10:07:45.614Z,1.40
2023-06-04T10:12:42.361Z,1.35
2023-06-04T10:15:11.767Z,1.17
2023-06-04T10:17:38.575Z,1.27
2023-06-04T10:20:06.939Z,1.20
2023-06-04T10:22:33.522Z,1.40
2023-06-04T10:25:00.118Z,1.20
2023-06-04T10:27:26.956Z,1.17
2023-06-04T10:29:54.025Z,1.42
2023-06-04T10:32:21.133Z,1.30
2023-06-04T10:34:47.804Z,1.10
2023-06-04T10:37:21.671Z,1.23
2023-06-04T10:39:55.291Z,1.10
2023-06-04T10:42:22.524Z,1.30
2023-06-04T10:44:50.036Z,1.15
2023-06-04T10:47:23.673Z,1.20
2023-06-04T10:49:55.850Z,0.88
2023-06-04T10:52:22.894Z,0.95
2023-06-04T10:54:49.994Z,1.17
2023-06-04T10:57:17.972Z,1.23
2023-06-04T10:59:56.886Z,1.20
2023-06-04T11:02:23.430Z,1.00
2023-06-04T11:05:02.531Z,1.00
2023-06-04T11:07:29.291Z,1.17
2023-06-04T11:09:58.067Z,1.20
2023-06-04T11:12:24.968Z,1.02
2023-06-04T11:14:55.332Z,0.93
2023-06-04T11:17:21.879Z,0.90
2023-06-04T11:19:48.403Z,0.82
2023-06-04T11:22:15.469Z,0.93
2023-06-04T11:24:42.059Z,0.98
2023-06-04T11:27:20.716Z,1.00
2023-06-04T11:29:54.869Z,2.67
2023-06-04T11:32:25.437Z,0.88
2023-06-04T11:37:18.438Z,0.75
2023-06-04T11:39:45.792Z,0.80
2023-06-04T11:42:12.423Z,0.88
2023-06-04T11:44:39.555Z,0.90
2023-06-04T11:47:07.590Z,1.00
2023-06-04T11:49:35.981Z,0.90
2023-06-04T11:52:02.767Z,0.70
2023-06-04T11:54:29.389Z,0.80
2023-06-04T11:56:55.944Z,0.60
2023-06-04T11:59:22.536Z,0.88
2023-06-04T12:01:49.755Z,0.82
2023-06-04T12:04:19.227Z,0.57
2023-06-04T12:06:53.330Z,0.80
2023-06-04T12:09:28.432Z,0.80
2023-06-04T12:12:05.211Z,1.20
2023-06-04T12:14:32.292Z,0.80
2023-06-04T12:17:09.308Z,0.82
2023-06-04T12:19:57.453Z,1.50
2023-06-04T12:22:24.003Z,1.10
2023-06-04T12:24:56.618Z,1.13
2023-06-04T12:27:24.333Z,0.95
2023-06-04T12:30:04.078Z,1.10
2023-06-04T12:32:31.192Z,1.00
2023-06-04T12:34:57.663Z,1.15
2023-06-04T12:37:26.583Z,1.33
2023-06-04T12:39:53.358Z,1.20
2023-06-04T12:42:21.603Z,0.90
2023-06-04T12:44:48.190Z,1.40
2023-06-04T12:47:14.931Z,1.20
2023-06-04T12:49:41.432Z,1.02
2023-06-04T12:52:07.949Z,1.00
2023-06-04T12:54:37.340Z,1.10
2023-06-04T12:57:03.952Z,1.10
2023-06-04T12:59:30.455Z,1.33
2023-06-04T13:01:57.109Z,1.10
2023-06-04T13:04:25.001Z,1.10
2023-06-04T13:06:54.172Z,1.00
2023-06-04T13:09:21.806Z,1.00
2023-06-04T13:11:48.384Z,1.38
2023-06-04T13:14:14.908Z,1.40
2023-06-04T13:16:42.034Z,1.17
2023-06-04T13:19:08.691Z,1.17
2023-06-04T13:21:36.061Z,0.98
2023-06-04T13:24:02.562Z,1.00
2023-06-04T13:26:29.156Z,1.33
2023-06-04T13:28:57.036Z,1.15
2023-06-04T13:31:23.549Z,0.90
2023-06-04T13:33:50.110Z,1.10
2023-06-04T13:36:16.609Z,1.40
2023-06-04T13:38:44.397Z,1.15
2023-06-04T13:41:11.265Z,1.08
2023-06-04T13:43:37.970Z,0.90
2023-06-04T13:46:06.614Z,1.00
2023-06-04T13:48:33.137Z,1.00
2023-06-04T13:50:59.590Z,0.98
2023-06-04T13:53:26.067Z,1.10
2023-06-04T13:55:58.795Z,1.13
2023-06-04T13:58:28.354Z,1.15
2023-06-04T14:00:55.071Z,1.08
2023-06-04T14:03:24.917Z,1.40
2023-06-04T14:05:51.457Z,1.10
2023-06-04T14:08:17.962Z,0.93
2023-06-04T14:10:44.506Z,1.20
2023-06-04T14:13:11.127Z,1.02
2023-06-04T14:15:37.921Z,0.90
2023-06-04T14:18:05.948Z,0.80
2023-06-04T14:20:33.755Z,0.90
2023-06-04T14:23:00.986Z,1.10
2023-06-04T14:25:27.888Z,0.98
2023-06-04T14:27:54.405Z,1.08
2023-06-04T14:30:20.975Z,1.00
2023-06-04T14:32:47.589Z,1.00
2023-06-04T14:35:14.098Z,0.80
2023-06-04T14:37:40.561Z,1.00
2023-06-04T14:40:07.300Z,1.00
2023-06-04T14:42:33.752Z,1.00
2023-06-04T14:45:00.369Z,0.82
2023-06-04T14:47:27.016Z,0.77
2023-06-04T14:49:53.529Z,0.90
2023-06-04T14:52:20.061Z,1.00
2023-06-04T14:54:46.545Z,0.82
2023-06-04T14:57:15.063Z,1.00
2023-06-04T14:59:44.197Z,0.88
2023-06-04T15:02:10.759Z,1.08
2023-06-04T15:04:38.148Z,1.13
2023-06-04T15:07:04.783Z,1.20
2023-06-04T15:09:31.399Z,0.90
2023-06-04T15:11:57.879Z,0.88
2023-06-04T15:14:24.367Z,0.98
2023-06-04T15:16:50.998Z,1.33
2023-06-04T15:19:20.642Z,0.95
2023-06-04T15:21:47.211Z,1.27
2023-06-04T15:24:13.764Z,0.82
2023-06-04T15:26:40.366Z,1.40
2023-06-04T15:29:07.351Z,0.90
2023-06-04T15:31:34.025Z,1.13
2023-06-04T15:34:00.616Z,1.00
2023-06-04T15:36:28.505Z,1.02
2023-06-04T15:38:55.174Z,1.00
2023-06-04T15:41:22.407Z,1.00
2023-06-04T15:43:49.133Z,1.30
2023-06-04T15:46:15.738Z,1.10
2023-06-04T15:48:42.277Z,1.25
2023-06-04T15:51:09.059Z,1.33
2023-06-04T15:53:35.846Z,1.05
2023-06-04T15:56:02.808Z,1.13
2023-06-04T15:58:29.318Z,1.17
2023-06-04T16:00:55.763Z,1.00
2023-06-04T16:03:22.395Z,1.08
2023-06-04T16:05:48.912Z,0.82
2023-06-04T16:08:16.700Z,0.90
2023-06-04T16:10:43.429Z,0.77
2023-06-04T16:13:09.871Z,1.05
2023-06-04T16:15:38.017Z,0.90
2023-06-04T16:18:04.597Z,0.80
2023-06-04T16:20:31.111Z,0.90
2023-06-04T16:22:57.606Z,0.80
2023-06-04T16:25:24.222Z,0.82
2023-06-04T16:27:50.858Z,0.77
2023-06-04T16:30:17.722Z,0.80
2023-06-04T16:32:44.382Z,0.80
2023-06-04T16:35:11.185Z,0.70
2023-06-04T16:37:38.269Z,0.70
2023-06-04T16:40:05.809Z,2.00
2023-06-04T16:42:32.405Z,0.60
2023-06-04T16:44:58.956Z,0.65
2023-06-04T16:47:25.723Z,0.82
2023-06-04T16:49:53.224Z,1.10
2023-06-04T16:52:19.787Z,0.73
2023-06-04T16:54:47.270Z,1.35
2023-06-04T16:57:13.768Z,1.20
2023-06-04T16:59:45.206Z,0.90
2023-06-04T17:02:11.815Z,1.00
2023-06-04T17:04:38.364Z,0.95
2023-06-04T17:07:04.833Z,1.00
2023-06-04T17:09:33.624Z,1.00
2023-06-04T17:12:00.487Z,0.80
2023-06-04T17:14:26.998Z,1.00
2023-06-04T17:16:53.543Z,0.90
2023-06-04T17:19:20.105Z,0.80
2023-06-04T17:21:46.598Z,1.00
2023-06-04T17:24:13.312Z,1.00
2023-06-04T17:26:39.942Z,0.82
2023-06-04T17:29:06.630Z,0.70
2023-06-04T17:31:33.140Z,1.00
2023-06-04T17:34:02.820Z,1.10
2023-06-04T17:36:29.300Z,1.00
2023-06-04T17:38:55.850Z,1.00
2023-06-04T17:41:22.367Z,1.05
2023-06-04T17:43:48.870Z,1.02
2023-06-04T17:46:15.609Z,1.02
2023-06-04T17:48:42.154Z,1.10
2023-06-04T17:51:10.115Z,0.90
2023-06-04T17:53:36.590Z,0.90
2023-06-04T17:56:03.262Z,0.90
2023-06-04T17:58:30.447Z,1.10
2023-06-04T18:00:57.766Z,1.20
2023-06-04T18:03:24.437Z,1.10
2023-06-04T18:05:51.013Z,0.90
2023-06-04T18:08:17.555Z,1.13
2023-06-04T18:10:44.266Z,0.95
2023-06-04T18:13:10.780Z,0.75
2023-06-04T18:15:37.280Z,0.90
2023-06-04T18:18:03.919Z,0.98
2023-06-04T18:20:30.534Z,0.90
2023-06-04T18:22:57.114Z,0.90
2023-06-04T18:25:24.738Z,0.90
2023-06-04T18:27:51.222Z,1.00
2023-06-04T18:30:17.805Z,1.10
2023-06-04T18:32:48.922Z,1.15
2023-06-04T18:35:16.084Z,0.95
2023-06-04T18:37:43.420Z,1.00
2023-06-04T18:40:12.301Z,1.05
2023-06-04T18:42:39.732Z,1.00
2023-06-04T18:45:08.553Z,0.90
2023-06-04T18:47:35.142Z,0.75
2023-06-04T18:50:01.643Z,1.25
2023-06-04T18:52:28.124Z,0.80
2023-06-04T18:54:54.615Z,0.80
2023-06-04T18:57:21.864Z,0.80
2023-06-04T18:59:48.320Z,0.70
2023-06-04T19:02:15.225Z,1.17
2023-06-04T19:04:41.814Z,0.90
2023-06-04T19:07:08.267Z,0.90
2023-06-04T19:09:35.627Z,0.70
2023-06-04T19:12:02.152Z,0.70
2023-06-04T19:14:28.765Z,0.70
2023-06-04T19:16:55.307Z,0.75
2023-06-04T19:19:21.866Z,0.82
2023-06-04T19:21:52.632Z,0.70
2023-06-04T19:24:22.290Z,0.77
2023-06-04T19:26:49.609Z,0.80
2023-06-04T19:29:16.192Z,0.75
2023-06-04T19:31:42.893Z,0.60
2023-06-04T19:34:09.375Z,0.63
2023-06-04T19:36:36.346Z,0.88
2023-06-04T19:39:02.964Z,0.75
2023-06-04T19:41:31.575Z,0.90
2023-06-04T19:43:58.089Z,0.80
2023-06-04T19:46:24.660Z,0.70
2023-06-04T19:48:52.007Z,0.80
2023-06-04T19:51:18.715Z,1.00
2023-06-04T19:53:45.191Z,0.70
2023-06-04T19:56:11.701Z,0.90
2023-06-04T19:58:38.214Z,0.70
2023-06-04T20:01:05.005Z,0.60
2023-06-04T20:03:33.333Z,0.90
2023-06-04T20:06:00.383Z,0.70
2023-06-04T20:08:27.143Z,0.80
2023-06-04T20:10:53.644Z,1.10
2023-06-04T20:13:20.071Z,1.00
2023-06-04T20:15:46.504Z,0.70
2023-06-04T20:18:13.210Z,1.02
2023-06-04T20:20:39.980Z,1.95
2023-06-04T20:23:06.720Z,1.05
2023-06-04T20:25:33.670Z,1.23
2023-06-04T20:28:00.188Z,0.90
2023-06-04T20:30:31.372Z,0.90
2023-06-04T20:32:57.845Z,0.80
2023-06-04T20:35:24.308Z,0.75
2023-06-04T20:37:50.991Z,1.00
2023-06-04T20:40:17.546Z,1.67
2023-06-04T20:42:44.029Z,1.00
2023-06-04T20:45:10.984Z,1.05
2023-06-04T20:47:37.581Z,0.90
2023-06-04T20:50:04.202Z,0.90
2023-06-04T20:52:30.749Z,1.08
2023-06-04T20:54:57.211Z,1.10
2023-06-04T20:57:23.704Z,0.93
2023-06-04T20:59:50.191Z,0.80
2023-06-04T21:02:16.897Z,0.88
2023-06-04T21:04:43.382Z,0.85
2023-06-04T21:07:12.292Z,0.88
2023-06-04T21:09:39.105Z,1.00
2023-06-04T21:12:05.759Z,0.90
2023-06-04T21:14:32.267Z,1.00
2023-06-04T21:16:58.715Z,1.10
2023-06-04T21:19:25.194Z,0.98
2023-06-04T21:21:51.643Z,1.10
2023-06-04T21:24:18.163Z,1.20
2023-06-04T21:26:44.665Z,1.20
2023-06-04T21:29:11.225Z,0.93
2023-06-04T21:31:37.704Z,1.08
2023-06-04T21:34:04.331Z,1.17
2023-06-04T21:36:31.076Z,1.23
2023-06-04T21:38:57.630Z,1.15
2023-06-04T21:41:24.234Z,1.30
2023-06-04T21:43:50.832Z,1.10
2023-06-04T21:46:17.746Z,1.20
2023-06-04T21:48:44.764Z,1.30
2023-06-04T21:51:11.230Z,0.90
2023-06-04T21:53:37.732Z,1.15
2023-06-04T21:56:04.531Z,0.98
2023-06-04T21:58:31.069Z,1.20
2023-06-04T22:00:57.599Z,1.30
2023-06-04T22:03:24.753Z,1.20
2023-06-04T22:05:51.316Z,1.05
2023-06-04T22:08:17.822Z,2.33
2023-06-04T22:10:44.421Z,1.20
2023-06-04T22:13:11.147Z,1.10
2023-06-04T22:15:37.839Z,1.13
2023-06-04T22:18:04.616Z,1.10
2023-06-04T22:20:31.260Z,1.48
2023-06-04T22:22:57.713Z,1.13
2023-06-04T22:25:24.440Z,1.65
2023-06-04T22:27:51.022Z,1.15
2023-06-04T22:30:17.510Z,1.40
2023-06-04T22:32:44.008Z,1.20
2023-06-04T22:35:10.499Z,1.25
2023-06-04T22:37:36.955Z,1.10
2023-06-04T22:40:04.019Z,1.05
2023-06-04T22:42:30.691Z,0.93
2023-06-04T22:45:00.673Z,1.10
2023-06-04T22:47:27.175Z,1.08
2023-06-04T22:49:53.624Z,1.15
2023-06-04T22:52:20.949Z,1.92
2023-06-04T22:54:47.657Z,1.00
2023-06-04T22:57:14.215Z,1.13
2023-06-04T22:59:41.817Z,1.20
2023-06-04T23:02:11.289Z,1.20
2023-06-04T23:04:38.004Z,0.90
2023-06-04T23:07:04.815Z,1.17
2023-06-04T23:09:31.336Z,1.23
2023-06-04T23:11:57.829Z,1.40
2023-06-04T23:14:24.287Z,1.30
2023-06-04T23:16:50.861Z,1.38
2023-06-04T23:19:17.354Z,1.10
2023-06-04T23:21:43.958Z,1.20
2023-06-04T23:24:10.493Z,1.27
2023-06-04T23:26:36.930Z,0.90
2023-06-04T23:29:03.354Z,1.30
2023-06-04T23:31:29.851Z,1.05
2023-06-04T23:33:56.672Z,1.33
2023-06-04T23:36:23.169Z,1.08
2023-06-04T23:38:49.634Z,1.20
2023-06-04T23:41:16.122Z,1.20
2023-06-04T23:43:45.333Z,1.10
2023-06-04T23:46:11.943Z,1.40
2023-06-04T23:48:38.443Z,1.25
2023-06-04T23:51:05.052Z,1.20
2023-06-04T23:53:31.625Z,1.13
2023-06-04T23:55:58.311Z,1.02
2023-06-04T23:58:24.853Z,1.15
